Time;durP1;ratioP1;P1;durP2;ratioP2;P2;SDS_P1;SDS_P2;PMS_P1;PMS_P2;Temp;Humidity;BMP_temperature;BMP_pressure;BME280_temperature;BME280_humidity;BME280_pressure;Samples;Min_cycle;Max_cycle;Signal;HPM_P1;HPM_P2
2022/01/24 00:01:07;;;;;;;47.90;23.37;;;;;;;2.11;100.00;100328.75;4840756;29;20278;-60
2022/01/24 00:03:33;;;;;;;53.70;24.53;;;;;;;2.10;100.00;100322.63;4840675;29;20026;-60
2022/01/24 00:05:58;;;;;;;53.60;24.33;;;;;;;2.04;100.00;100327.53;4840892;29;20288;-59
2022/01/24 00:08:24;;;;;;;47.57;22.30;;;;;;;1.89;100.00;100334.75;4840422;29;20038;-60
2022/01/24 00:10:51;;;;;;;50.73;23.87;;;;;;;2.04;100.00;100331.00;4840406;29;20037;-60
2022/01/24 00:16:18;;;;;;;47.03;23.03;;;;;;;2.09;100.00;100330.66;4840608;29;20349;-60
2022/01/24 00:26:48;;;;;;;53.50;23.70;;;;;;;1.97;100.00;100327.13;4840331;29;20288;-59
2022/01/24 00:29:15;;;;;;;49.13;23.13;;;;;;;2.21;100.00;100328.91;4840513;29;20277;-60
2022/01/24 00:31:41;;;;;;;55.67;25.37;;;;;;;2.19;100.00;100329.84;4840502;29;20058;-60
2022/01/24 00:34:07;;;;;;;48.97;22.50;;;;;;;2.03;100.00;100326.69;4840495;29;20635;-60
2022/01/24 00:36:32;;;;;;;46.83;22.83;;;;;;;2.11;100.00;100326.09;4840750;29;20037;-60
2022/01/24 00:38:58;;;;;;;51.43;24.93;;;;;;;2.11;100.00;100326.94;4840409;29;20040;-60
2022/01/24 00:41:27;;;;;;;55.13;25.63;;;;;;;2.24;100.00;100326.88;4839474;29;20030;-60
2022/01/24 00:44:30;;;;;;;49.50;23.30;;;;;;;2.01;100.00;100325.09;4840591;29;20697;-59
2022/01/24 00:47:27;;;;;;;54.07;26.43;;;;;;;2.13;100.00;100325.03;4840326;29;20759;-60
2022/01/24 00:49:52;;;;;;;47.83;22.63;;;;;;;2.16;100.00;100324.00;4837644;29;20277;-60
2022/01/24 00:55:02;;;;;;;;;;;;;;;2.18;100.00;100330.00;4840893;29;20693;-60
2022/01/24 00:57:28;;;;;;;51.53;25.13;;;;;;;2.26;100.00;100324.97;4840542;29;20343;-60
2022/01/24 00:59:53;;;;;;;46.23;22.60;;;;;;;2.27;100.00;100331.09;4840294;29;20281;-60
2022/01/24 01:02:19;;;;;;;53.10;25.07;;;;;;;2.23;100.00;100319.09;4840330;29;20113;-59
2022/01/24 01:07:18;;;;;;;47.47;23.27;;;;;;;1.96;100.00;100316.72;4840453;29;20118;-60
2022/01/24 01:23:34;;;;;;;51.77;24.63;;;;;;;2.03;100.00;100302.13;4786804;30;20291;-59
2022/01/24 01:26:04;;;;;;;54.03;25.40;;;;;;;2.12;100.00;100314.59;4786820;30;20362;-60
2022/01/24 01:28:31;;;;;;;51.80;23.23;;;;;;;2.10;100.00;100313.88;4771886;30;20723;-59
2022/01/24 01:31:03;;;;;;;60.03;27.27;;;;;;;2.18;100.00;100303.63;4786774;30;20275;-60
2022/01/24 01:36:11;;;;;;;50.57;23.27;;;;;;;2.05;100.00;100301.06;4786518;30;20271;-60
2022/01/24 01:55:36;;;;;;;47.67;23.13;;;;;;;2.01;100.00;100296.94;4786242;30;20366;-59
2022/01/24 01:58:06;;;;;;;57.70;25.70;;;;;;;2.04;100.00;100299.38;4842738;29;20304;-61
2022/01/24 02:00:34;;;;;;;53.83;24.63;;;;;;;2.04;100.00;100294.09;4842875;29;20783;-60
2022/01/24 02:03:00;;;;;;;52.40;24.70;;;;;;;2.03;100.00;100296.84;4842792;29;20281;-60
2022/01/24 02:05:26;;;;;;;53.47;24.50;;;;;;;1.99;100.00;100285.69;4842762;29;20384;-60
2022/01/24 02:07:53;;;;;;;53.03;24.43;;;;;;;1.97;100.00;100286.75;4842647;29;20368;-59
2022/01/24 02:10:21;;;;;;;51.07;23.77;;;;;;;2.00;100.00;100279.44;4842623;29;20519;-60
2022/01/24 02:12:48;;;;;;;54.30;25.93;;;;;;;2.06;100.00;100271.09;4842338;29;20297;-60
2022/01/24 02:15:20;;;;;;;50.70;24.07;;;;;;;2.21;100.00;100277.00;4842432;29;20270;-60
2022/01/24 02:18:07;;;;;;;52.17;24.23;;;;;;;2.09;100.00;100277.91;4841232;29;20782;-60
2022/01/24 02:20:53;;;;;;;49.27;23.37;;;;;;;2.07;100.00;100267.50;4842801;29;20922;-59
2022/01/24 02:25:53;;;;;;;54.17;24.30;;;;;;;1.87;100.00;100273.41;4842664;29;20265;-60
2022/01/24 02:28:21;;;;;;;48.73;23.83;;;;;;;1.84;100.00;100267.53;4842479;29;20317;-60
2022/01/24 02:33:29;;;;;;;53.93;24.17;;;;;;;2.01;100.00;100265.31;4842425;29;20277;-60
2022/01/24 02:35:55;;;;;;;57.23;24.67;;;;;;;1.93;100.00;100270.34;4842368;29;20273;-60
2022/01/24 02:38:44;;;;;;;53.70;25.40;;;;;;;1.87;100.00;100262.84;4842293;29;20076;-60
2022/01/24 02:49:32;;;;;;;53.63;25.07;;;;;;;1.66;100.00;100267.09;4842101;29;20667;-60
2022/01/24 02:52:16;;;;;;;56.57;26.63;;;;;;;1.71;100.00;100254.44;4842267;29;20277;-61
2022/01/24 02:54:44;;;;;;;52.17;24.63;;;;;;;1.65;100.00;100260.97;4842184;29;20273;-59
2022/01/24 02:57:10;;;;;;;56.30;25.17;;;;;;;1.72;100.00;100253.47;4841809;29;20274;-60
2022/01/24 02:59:37;;;;;;;62.23;27.73;;;;;;;1.78;100.00;100250.38;4840766;29;20760;-60
2022/01/24 03:02:03;;;;;;;62.63;26.67;;;;;;;1.82;100.00;100254.47;4841798;29;20715;-60
2022/01/24 03:04:29;;;;;;;62.13;27.47;;;;;;;1.84;100.00;100251.72;4841693;29;20329;-60
2022/01/24 03:06:54;;;;;;;61.60;28.77;;;;;;;1.77;100.00;100249.53;4841619;29;20313;-59
2022/01/24 03:09:22;;;;;;;63.53;29.83;;;;;;;1.78;100.00;100255.66;4841768;29;20142;-60
2022/01/24 03:14:27;;;;;;;66.00;31.83;;;;;;;1.77;100.00;100249.53;4841434;29;20273;-60
2022/01/24 03:16:53;;;;;;;64.37;30.63;;;;;;;1.82;100.00;100251.84;4841343;29;20357;-60
2022/01/24 03:19:19;;;;;;;62.47;28.47;;;;;;;1.78;100.00;100253.00;4840258;29;20277;-60
2022/01/24 03:21:45;;;;;;;65.20;29.90;;;;;;;1.76;100.00;100258.38;4841356;29;20687;-59
2022/01/24 03:24:11;;;;;;;63.07;28.20;;;;;;;1.75;100.00;100250.59;4841344;29;20038;-60
2022/01/24 03:26:37;;;;;;;58.10;26.67;;;;;;;1.72;100.00;100248.22;4841184;29;20046;-59
2022/01/24 03:29:04;;;;;;;54.70;26.07;;;;;;;1.81;100.00;100244.88;4841256;29;20767;-60
2022/01/24 03:31:29;;;;;;;56.43;25.77;;;;;;;1.86;100.00;100248.00;4840034;29;20034;-60
2022/01/24 03:33:55;;;;;;;57.07;25.27;;;;;;;1.79;100.00;100246.78;4841205;29;20322;-60
2022/01/24 03:36:20;;;;;;;49.87;24.07;;;;;;;1.85;100.00;100250.78;4841125;29;20040;-60
2022/01/24 03:38:46;;;;;;;60.00;26.87;;;;;;;1.75;100.00;100261.13;4841019;29;20477;-60
2022/01/24 03:41:12;;;;;;;58.67;26.97;;;;;;;1.74;100.00;100260.28;4841277;29;20041;-59
2022/01/24 03:43:37;;;;;;;56.17;26.80;;;;;;;1.74;100.00;100255.03;4840477;29;20042;-60
2022/01/24 03:48:43;;;;;;;56.87;26.10;;;;;;;1.68;100.00;100259.91;4840199;29;20038;-60
2022/01/24 03:51:10;;;;;;;59.37;27.40;;;;;;;1.74;100.00;100270.00;4841160;29;20742;-60
2022/01/24 03:53:36;;;;;;;63.10;29.03;;;;;;;1.86;100.00;100265.59;4840976;29;20301;-60
2022/01/24 03:56:03;;;;;;;62.60;30.40;;;;;;;1.89;100.00;100260.13;4840952;29;20316;-59
2022/01/24 03:58:28;;;;;;;66.80;29.93;;;;;;;1.81;100.00;100265.97;4840974;29;20277;-60
2022/01/24 04:00:55;;;;;;;64.13;29.87;;;;;;;1.87;100.00;100260.22;4840887;29;20712;-60
2022/01/24 04:03:21;;;;;;;62.17;29.53;;;;;;;1.88;100.00;100266.34;4841055;29;20433;-59
2022/01/24 04:05:47;;;;;;;68.50;30.87;;;;;;;1.81;100.00;100265.97;4840954;29;20807;-60
2022/01/24 04:08:13;;;;;;;66.17;31.30;;;;;;;1.65;100.00;100266.25;4840760;29;20296;-60
2022/01/24 04:10:45;;;;;;;66.57;32.43;;;;;;;1.60;100.00;100257.00;4840531;29;20281;-59
2022/01/24 04:13:56;;;;;;;73.43;31.33;;;;;;;1.76;100.00;100261.03;4840841;29;20034;-59
2022/01/24 04:23:50;;;;;;;64.37;27.90;;;;;;;1.81;100.00;100258.06;4840828;29;20864;-59
2022/01/24 04:26:16;;;;;;;56.83;26.63;;;;;;;1.82;100.00;100270.28;4840478;29;20260;-60
2022/01/24 04:28:42;;;;;;;64.20;26.93;;;;;;;1.78;100.00;100260.91;4839490;29;20281;-60
2022/01/24 04:31:08;;;;;;;63.60;29.50;;;;;;;1.72;100.00;100266.66;4840516;29;20038;-60
2022/01/24 04:33:33;;;;;;;60.77;27.43;;;;;;;1.71;100.00;100264.97;4840590;29;20034;-60
2022/01/24 04:35:59;;;;;;;68.03;29.53;;;;;;;1.73;100.00;100265.69;4840412;29;20262;-60
2022/01/24 04:38:26;;;;;;;69.67;28.17;;;;;;;1.75;100.00;100266.41;4839478;29;20619;-61
2022/01/24 04:40:59;;;;;;;63.43;29.13;;;;;;;1.71;100.00;100262.34;4840354;29;20037;-60
2022/01/24 04:56:36;;;;;;;66.73;27.57;;;;;;;1.79;100.00;100266.06;4844066;29;20309;-60
2022/01/24 04:59:02;;;;;;;66.23;27.00;;;;;;;1.73;100.00;100260.44;4843817;29;20296;-60
2022/01/24 05:01:28;;;;;;;62.53;26.07;;;;;;;1.63;100.00;100262.03;4843841;29;20738;-59
2022/01/24 05:03:53;;;;;;;64.23;27.70;;;;;;;1.64;100.00;100271.63;4843676;29;20034;-60
2022/01/24 05:06:19;;;;;;;62.77;26.70;;;;;;;1.77;100.00;100277.69;4843509;29;20036;-60
2022/01/24 05:08:45;;;;;;;61.73;26.97;;;;;;;1.72;100.00;100270.13;4843654;29;20041;-59
2022/01/24 05:11:16;;;;;;;63.30;26.97;;;;;;;1.75;100.00;100275.16;4843529;29;20054;-59
2022/01/24 05:24:32;;;;;;;65.43;27.37;;;;;;;1.90;100.00;100260.00;4843783;29;20124;-60
2022/01/24 05:26:58;;;;;;;66.33;27.60;;;;;;;2.07;100.00;100264.03;4843348;29;20281;-59
2022/01/24 05:29:24;;;;;;;66.47;27.37;;;;;;;1.83;100.00;100264.06;4843562;29;20285;-59
2022/01/24 05:31:50;;;;;;;66.63;27.77;;;;;;;1.92;100.00;100263.38;4843477;29;20706;-59
2022/01/24 05:34:16;;;;;;;64.07;28.40;;;;;;;1.92;100.00;100268.66;4843355;29;20484;-61
2022/01/24 05:36:42;;;;;;;64.33;27.57;;;;;;;1.90;100.00;100270.53;4843420;29;20304;-59
2022/01/24 05:39:08;;;;;;;64.73;28.70;;;;;;;1.81;100.00;100269.44;4842070;29;20086;-60
2022/01/24 05:41:36;;;;;;;70.73;30.50;;;;;;;1.79;100.00;100262.59;4843233;29;20026;-60
2022/01/24 05:44:02;;;;;;;72.63;30.83;;;;;;;1.85;100.00;100266.59;4843157;29;20289;-60
2022/01/24 05:46:27;;;;;;;72.00;30.93;;;;;;;1.94;100.00;100272.00;4843383;29;20289;-60
2022/01/24 05:48:54;;;;;;;64.47;28.77;;;;;;;1.94;100.00;100265.91;4843071;29;20518;-60
2022/01/24 05:51:21;;;;;;;70.27;31.03;;;;;;;1.88;100.00;100267.19;4841782;29;20484;-59
2022/01/24 05:53:47;;;;;;;70.87;29.90;;;;;;;1.92;100.00;100263.38;4843045;29;20269;-59
2022/01/24 05:56:13;;;;;;;72.20;30.17;;;;;;;1.88;100.00;100268.97;4842937;29;20804;-60
2022/01/24 05:58:39;;;;;;;66.60;27.67;;;;;;;1.78;100.00;100276.72;4842896;29;20631;-60
2022/01/24 06:01:04;;;;;;;63.80;28.37;;;;;;;1.91;100.00;100268.75;4842892;29;20269;-59
2022/01/24 06:03:33;;;;;;;67.00;29.70;;;;;;;1.62;100.00;100270.88;4841610;29;20495;-59
2022/01/24 06:05:58;;;;;;;68.17;29.80;;;;;;;1.78;100.00;100269.66;4842247;29;20034;-59
2022/01/24 06:08:24;;;;;;;70.00;29.50;;;;;;;1.86;100.00;100263.81;4842502;29;20270;-59
2022/01/24 06:10:50;;;;;;;63.97;29.43;;;;;;;1.86;100.00;100274.34;4842243;29;20037;-59
2022/01/24 06:13:16;;;;;;;65.83;28.50;;;;;;;1.79;100.00;100270.50;4842504;29;20449;-60
2022/01/24 06:15:43;;;;;;;66.27;29.00;;;;;;;1.76;100.00;100271.56;4842506;29;20105;-59
2022/01/24 06:18:09;;;;;;;68.20;28.73;;;;;;;1.88;100.00;100275.09;4840939;29;20628;-59
2022/01/24 06:20:34;;;;;;;65.87;29.63;;;;;;;1.94;100.00;100279.91;4842316;29;20277;-59
2022/01/24 06:23:00;;;;;;;62.00;28.77;;;;;;;1.70;100.00;100285.19;4842230;29;20269;-60
2022/01/24 06:25:28;;;;;;;58.43;27.37;;;;;;;1.85;100.00;100274.50;4841133;29;20026;-60
2022/01/24 06:27:53;;;;;;;60.57;27.20;;;;;;;1.82;100.00;100280.81;4842089;29;20037;-59
2022/01/24 06:30:19;;;;;;;62.03;27.20;;;;;;;1.81;100.00;100277.34;4842059;29;20325;-60
2022/01/24 06:32:45;;;;;;;61.60;28.43;;;;;;;1.86;100.00;100277.00;4842274;29;20137;-60
2022/01/24 06:35:12;;;;;;;60.63;28.13;;;;;;;1.83;100.00;100279.88;4842025;29;20372;-60
2022/01/24 06:37:37;;;;;;;55.80;27.20;;;;;;;1.85;100.00;100272.66;4842102;29;20484;-60
2022/01/24 06:40:08;;;;;;;63.97;27.97;;;;;;;1.87;100.00;100286.59;4841916;29;20284;-60
2022/01/24 06:42:34;;;;;;;56.23;26.23;;;;;;;1.81;100.00;100284.41;4842041;29;20494;-59
2022/01/24 06:45:00;;;;;;;55.63;25.07;;;;;;;1.79;100.00;100281.88;4842081;29;20375;-60
2022/01/24 06:47:25;;;;;;;62.10;26.47;;;;;;;1.94;100.00;100279.91;4841820;29;20396;-60
2022/01/24 06:49:52;;;;;;;55.50;25.63;;;;;;;1.98;100.00;100283.16;4841989;29;20473;-59
2022/01/24 06:52:17;;;;;;;52.60;24.90;;;;;;;1.87;100.00;100283.94;4841912;29;20117;-60
2022/01/24 06:54:44;;;;;;;55.97;25.40;;;;;;;1.98;100.00;100283.16;4842018;29;20705;-60
2022/01/24 06:57:11;;;;;;;53.60;25.33;;;;;;;2.02;100.00;100288.09;4841828;29;20040;-60
2022/01/24 06:59:41;;;;;;;52.60;24.50;;;;;;;1.92;100.00;100288.88;4841859;29;20632;-59
2022/01/24 07:02:09;;;;;;;58.33;26.43;;;;;;;1.81;100.00;100290.53;4841977;29;20301;-59
2022/01/24 07:04:36;;;;;;;54.90;26.67;;;;;;;1.74;100.00;100285.78;4841794;29;20369;-59
2022/01/24 07:07:04;;;;;;;59.17;28.03;;;;;;;1.75;100.00;100288.31;4841800;29;20391;-59
2022/01/24 07:09:29;;;;;;;55.77;28.37;;;;;;;1.76;100.00;100292.66;4841607;29;20297;-60
2022/01/24 07:11:56;;;;;;;59.23;28.57;;;;;;;1.71;100.00;100302.69;4841233;29;20293;-59
2022/01/24 07:14:21;;;;;;;57.40;28.40;;;;;;;1.70;100.00;100297.53;4841738;29;20033;-59
2022/01/24 07:19:16;;;;;;;59.33;28.50;;;;;;;1.86;100.00;100300.72;4840606;29;20408;-59
2022/01/24 07:21:41;;;;;;;60.70;27.63;;;;;;;1.83;100.00;100300.97;4841550;29;20269;-59
2022/01/24 07:24:07;;;;;;;56.10;26.73;;;;;;;1.89;100.00;100310.19;4841377;29;20048;-59
2022/01/24 07:26:32;;;;;;;56.20;25.13;;;;;;;1.95;100.00;100310.59;4841359;29;20037;-59
2022/01/24 07:28:58;;;;;;;50.70;25.70;;;;;;;1.98;100.00;100317.41;4841353;29;20036;-59
2022/01/24 07:31:23;;;;;;;50.83;24.50;;;;;;;2.03;100.00;100326.69;4840059;29;20082;-59
2022/01/24 07:33:50;;;;;;;50.27;25.17;;;;;;;2.08;100.00;100326.31;4838989;29;20101;-58
2022/01/24 07:36:16;;;;;;;52.63;25.23;;;;;;;2.30;100.00;100330.88;4840035;29;20500;-59
2022/01/24 07:38:41;;;;;;;47.67;24.90;;;;;;;2.40;100.00;100334.50;4834782;29;20270;-61
2022/01/24 07:41:07;;;;;;;43.47;23.20;;;;;;;2.45;100.00;100340.25;4820646;29;20045;-59
2022/01/24 07:43:33;;;;;;;44.63;23.20;;;;;;;2.48;100.00;100340.03;4836249;29;20041;-59
2022/01/24 07:45:58;;;;;;;44.60;22.80;;;;;;;2.49;100.00;100333.81;4841077;29;20022;-59
2022/01/24 07:48:24;;;;;;;43.03;22.30;;;;;;;2.57;100.00;100341.13;4840905;29;20022;-60
2022/01/24 07:50:51;;;;;;;43.00;22.80;;;;;;;2.50;100.00;100346.03;4840985;29;20070;-59
2022/01/24 07:53:17;;;;;;;42.00;22.10;;;;;;;2.76;100.00;100344.06;4840929;29;20151;-59
2022/01/24 07:55:43;;;;;;;40.10;21.67;;;;;;;2.85;100.00;100353.91;4841191;29;20264;-59
2022/01/24 07:58:10;;;;;;;37.47;20.37;;;;;;;2.79;100.00;100346.44;4839666;29;20269;-61
2022/01/24 08:00:36;;;;;;;40.60;20.80;;;;;;;2.62;100.00;100347.75;4841050;29;20276;-59
2022/01/24 08:03:02;;;;;;;38.37;20.67;;;;;;;2.75;100.00;100343.22;4840837;29;21058;-59
2022/01/24 08:05:28;;;;;;;37.47;20.87;;;;;;;2.66;100.00;100351.81;4840749;29;20290;-60
2022/01/24 08:07:53;;;;;;;35.30;19.30;;;;;;;2.78;100.00;100352.69;4840843;29;20273;-60
2022/01/24 08:10:20;;;;;;;35.37;19.83;;;;;;;2.70;100.00;100361.19;4841025;29;20473;-61
2022/01/24 08:12:46;;;;;;;36.97;20.23;;;;;;;2.89;100.00;100360.63;4823722;29;20075;-59
2022/01/24 08:15:14;;;;;;;41.17;20.23;;;;;;;2.99;100.00;100358.13;4822742;29;20278;-59
2022/01/24 08:17:41;;;;;;;37.50;19.80;;;;;;;2.99;100.00;100356.34;4829701;29;20287;-59
2022/01/24 08:20:08;;;;;;;36.47;20.30;;;;;;;3.07;100.00;100351.28;4840850;29;20368;-59
2022/01/24 08:22:33;;;;;;;40.60;20.03;;;;;;;3.25;100.00;100354.28;4840882;29;20273;-59
2022/01/24 08:25:03;;;;;;;35.13;19.43;;;;;;;3.11;100.00;100343.97;4840522;29;20376;-60
2022/01/24 08:27:29;;;;;;;36.40;19.13;;;;;;;2.97;100.00;100349.50;4840480;29;20034;-59
2022/01/24 08:29:55;;;;;;;39.27;20.50;;;;;;;3.11;100.00;100357.19;4841788;29;20273;-60
2022/01/24 08:32:21;;;;;;;37.20;20.63;;;;;;;3.33;100.00;100359.84;4843130;29;20265;-60
2022/01/24 08:34:46;;;;;;;37.30;20.23;;;;;;;3.59;100.00;100363.03;4825452;29;20404;-61
2022/01/24 08:37:12;;;;;;;36.67;20.27;;;;;;;3.73;100.00;100349.56;4823468;29;20481;-60
2022/01/24 08:39:39;;;;;;;37.27;20.73;;;;;;;3.57;100.00;100360.53;4821718;29;20041;-60
2022/01/24 08:47:29;;;;;;;32.97;20.37;;;;;;;4.03;100.00;100369.22;4818361;29;20373;-59
2022/01/24 08:49:56;;;;;;;31.60;19.20;;;;;;;4.05;100.00;100369.91;4820687;29;20266;-59
2022/01/24 08:52:22;;;;;;;34.50;19.60;;;;;;;4.18;100.00;100360.84;4817365;29;20037;-59
2022/01/24 08:54:48;;;;;;;37.13;19.63;;;;;;;4.28;100.00;100353.81;4815324;29;20262;-59
2022/01/24 08:57:13;;;;;;;31.90;18.60;;;;;;;4.48;100.00;100360.13;4834661;29;20041;-58
2022/01/24 08:59:40;;;;;;;31.00;18.27;;;;;;;4.45;100.00;100360.38;4833876;29;20274;-58
2022/01/24 09:02:06;;;;;;;31.40;18.10;;;;;;;4.51;100.00;100369.59;4843679;29;20392;-58
2022/01/24 09:04:32;;;;;;;32.17;18.60;;;;;;;4.33;100.00;100367.53;4843723;29;20752;-59
2022/01/24 09:07:03;;;;;;;33.70;18.23;;;;;;;4.48;100.00;100365.44;4813085;29;20294;-59
2022/01/24 09:09:29;;;;;;;33.60;18.70;;;;;;;4.67;100.00;100362.06;4806102;29;20034;-58
2022/01/24 09:11:54;;;;;;;38.00;18.93;;;;;;;4.45;100.00;100363.03;4806921;29;20293;-58
2022/01/24 09:14:20;;;;;;;30.77;18.17;;;;;;;4.42;100.00;100370.38;4809671;29;20341;-59
2022/01/24 09:16:46;;;;;;;31.60;18.60;;;;;;;4.29;100.00;100375.84;4822515;29;20041;-60
2022/01/24 09:19:13;;;;;;;32.87;19.07;;;;;;;4.36;100.00;100372.59;4819689;29;20042;-59
2022/01/24 09:21:38;;;;;;;31.87;17.30;;;;;;;4.38;100.00;100382.19;4816358;29;20845;-58
2022/01/24 09:24:05;;;;;;;31.33;18.10;;;;;;;4.59;100.00;100375.97;4817211;29;20282;-59
2022/01/24 09:26:30;;;;;;;30.80;17.60;;;;;;;4.50;100.00;100373.25;4811623;29;20027;-59
2022/01/24 09:28:56;;;;;;;31.27;17.37;;;;;;;4.46;100.00;100387.69;4830011;29;20299;-60
2022/01/24 09:31:22;;;;;;;32.33;19.63;;;;;;;4.61;100.00;100386.44;4819833;29;20128;-58
2022/01/24 09:33:50;;;;;;;28.43;16.73;;;;;;;4.90;100.00;100378.66;4824677;29;20030;-59
2022/01/24 09:36:16;;;;;;;29.97;16.73;;;;;;;4.93;100.00;100381.91;4817214;29;20618;-59
2022/01/24 09:38:41;;;;;;;30.60;17.27;;;;;;;4.99;100.00;100385.81;4818476;29;20304;-59
2022/01/24 09:41:10;;;;;;;29.77;17.17;;;;;;;4.69;100.00;100383.97;4823688;29;20118;-59
2022/01/24 09:43:36;;;;;;;26.73;16.60;;;;;;;4.82;100.00;100383.78;4825695;29;20034;-63
2022/01/24 09:46:03;;;;;;;28.10;18.17;;;;;;;4.77;100.00;100380.66;4823578;29;20323;-63
2022/01/24 09:48:29;;;;;;;30.67;18.60;;;;;;;5.17;100.00;100384.28;4823251;29;20030;-57
2022/01/24 09:50:55;;;;;;;29.57;17.77;;;;;;;5.48;100.00;100387.75;4824617;29;20314;-57
2022/01/24 09:53:23;;;;;;;29.40;16.80;;;;;;;5.61;100.00;100388.38;4829272;29;20265;-56
2022/01/24 09:55:49;;;;;;;28.57;16.70;;;;;;;5.34;100.00;100381.00;4842936;29;20040;-57
2022/01/24 09:58:15;;;;;;;27.10;16.00;;;;;;;5.91;100.00;100381.34;4834612;29;20846;-56
2022/01/24 10:00:41;;;;;;;24.87;16.07;;;;;;;5.96;100.00;100371.19;4822373;29;20305;-57
2022/01/24 10:03:08;;;;;;;25.53;16.37;;;;;;;5.78;100.00;100374.44;4823176;29;20030;-58
2022/01/24 10:05:39;;;;;;;24.73;15.90;;;;;;;5.95;100.00;100374.81;4824417;29;20053;-58
2022/01/24 10:08:08;;;;;;;25.37;15.30;;;;;;;5.95;100.00;100365.03;4824469;29;20034;-58
2022/01/24 10:10:41;;;;;;;25.93;15.53;;;;;;;6.13;100.00;100360.72;4822793;29;20022;-58
2022/01/24 10:19:14;;;;;;;22.13;13.87;;;;;;;6.89;100.00;100350.22;4766309;30;20400;-58
2022/01/24 10:22:01;;;;;;;22.83;13.67;;;;;;;8.03;100.00;100346.31;4767848;30;20045;-58
2022/01/24 10:24:39;;;;;;;18.77;11.97;;;;;;;8.72;100.00;100346.50;4762436;29;20097;-59
2022/01/24 10:27:11;;;;;;;22.37;13.03;;;;;;;9.60;100.00;100339.16;4762253;30;20027;-60
2022/01/24 10:29:51;;;;;;;16.97;11.37;;;;;;;10.25;100.00;100332.19;4764626;30;20043;-59
2022/01/24 10:32:39;;;;;;;17.53;10.43;;;;;;;9.56;100.00;100332.47;4775995;30;20114;-59
2022/01/24 10:35:31;;;;;;;17.40;11.27;;;;;;;9.50;100.00;100336.59;4773685;30;20039;-59
2022/01/24 10:38:26;;;;;;;13.50;9.93;;;;;;;9.46;100.00;100332.56;4785858;30;20115;-58
2022/01/24 10:41:07;;;;;;;12.80;8.73;;;;;;;9.44;100.00;100339.94;4785706;30;20092;-58
2022/01/24 10:43:34;;;;;;;13.80;8.87;;;;;;;9.61;100.00;100328.31;4774203;30;20047;-59
2022/01/24 10:46:00;;;;;;;13.10;7.93;;;;;;;9.86;100.00;100326.56;4774674;30;20031;-60
2022/01/24 10:48:32;;;;;;;10.87;7.40;;;;;;;10.52;100.00;100326.50;4765297;30;20822;-58
2022/01/24 10:51:18;;;;;;;11.37;7.73;;;;;;;11.24;100.00;100310.53;4769869;30;20031;-59
2022/01/24 10:53:50;;;;;;;11.70;8.00;;;;;;;10.71;100.00;100306.63;4779797;29;20043;-58
2022/01/24 10:56:35;;;;;;;10.43;7.37;;;;;;;10.28;100.00;100309.63;4828380;29;20034;-58
2022/01/24 10:59:06;;;;;;;11.57;7.57;;;;;;;10.11;100.00;100298.06;4841773;29;20117;-58
2022/01/24 11:01:33;;;;;;;12.03;7.33;;;;;;;9.86;100.00;100299.03;4840761;29;20038;-60
2022/01/24 11:04:03;;;;;;;11.10;7.30;;;;;;;10.39;100.00;100301.28;4823558;29;20039;-59
2022/01/24 11:06:50;;;;;;;10.00;7.10;;;;;;;9.62;100.00;100289.13;4823461;29;20034;-59
2022/01/24 11:09:23;;;;;;;11.97;7.70;;;;;;;11.16;100.00;100295.34;4823398;29;20027;-59
2022/01/24 11:11:53;;;;;;;9.25;6.88;;;;;;;10.07;100.00;100294.06;4823210;29;20065;-59
2022/01/24 11:14:20;;;;;;;8.93;6.20;;;;;;;10.13;100.00;100290.75;4833929;29;20522;-59
2022/01/24 11:16:48;;;;;;;8.03;5.33;;;;;;;11.50;100.00;100288.84;4841707;29;20472;-59
2022/01/24 11:19:25;;;;;;;9.10;6.23;;;;;;;8.54;100.00;100298.53;4838003;29;20041;-59
2022/01/24 11:21:53;;;;;;;8.53;5.70;;;;;;;8.92;100.00;100297.31;4821080;29;20049;-59
2022/01/24 11:24:23;;;;;;;8.40;5.07;;;;;;;9.44;100.00;100295.41;4823104;29;20038;-59
2022/01/24 11:26:49;;;;;;;7.03;4.47;;;;;;;8.64;100.00;100291.31;4822737;29;20041;-59
2022/01/24 11:29:18;;;;;;;4.63;3.00;;;;;;;8.21;100.00;100288.59;4822744;29;20034;-59
2022/01/24 11:31:49;;;;;;;6.70;2.63;;;;;;;8.33;100.00;100287.38;4822831;29;20042;-59
2022/01/24 11:34:42;;;;;;;6.47;3.00;;;;;;;7.37;100.00;100285.41;4821610;29;20026;-60
2022/01/24 11:37:08;;;;;;;5.50;2.40;;;;;;;7.16;100.00;100277.66;4819150;29;20046;-59
2022/01/24 11:39:36;;;;;;;5.77;2.80;;;;;;;7.26;100.00;100281.13;4822772;29;20087;-59
2022/01/24 11:42:02;;;;;;;4.33;2.27;;;;;;;6.84;100.00;100294.84;4822884;29;20034;-59
2022/01/24 11:44:48;;;;;;;4.77;2.40;;;;;;;6.99;100.00;100281.94;4823057;29;20449;-59
2022/01/24 11:47:22;;;;;;;4.90;2.80;;;;;;;7.04;100.00;100289.47;4822956;29;20689;-59
2022/01/24 11:49:52;;;;;;;4.77;2.70;;;;;;;6.73;100.00;100280.88;4822905;29;20508;-58
2022/01/24 11:52:18;;;;;;;5.03;2.50;;;;;;;7.03;100.00;100287.78;4820574;29;20122;-59
2022/01/24 11:57:34;;;;;;;4.87;2.30;;;;;;;7.10;100.00;100281.75;4822666;29;20439;-59
2022/01/24 12:00:05;;;;;;;3.73;2.37;;;;;;;6.91;100.00;100279.16;4822865;29;20045;-59
2022/01/24 12:02:44;;;;;;;4.43;2.40;;;;;;;6.95;100.00;100269.91;4822932;29;20030;-59
2022/01/24 12:05:15;;;;;;;5.13;2.20;;;;;;;7.13;100.00;100270.81;4822191;29;20699;-59
2022/01/24 12:07:52;;;;;;;5.23;2.67;;;;;;;6.89;100.00;100275.81;4822903;29;20045;-59
2022/01/24 12:10:33;;;;;;;5.63;3.00;;;;;;;6.75;100.00;100278.94;4822765;29;20041;-60
2022/01/24 12:13:25;;;;;;;5.47;2.90;;;;;;;6.71;100.00;100269.56;4822927;29;20042;-60
2022/01/24 12:15:56;;;;;;;4.90;2.83;;;;;;;6.62;100.00;100263.31;4822745;29;20035;-59
2022/01/24 12:18:28;;;;;;;6.50;2.90;;;;;;;6.72;100.00;100268.59;4821513;29;20041;-59
2022/01/24 12:21:07;;;;;;;5.33;2.93;;;;;;;6.43;100.00;100272.16;4822733;29;20046;-59
2022/01/24 12:23:51;;;;;;;5.73;3.20;;;;;;;6.59;100.00;100273.38;4820466;29;20065;-59
2022/01/24 12:26:17;;;;;;;8.17;3.70;;;;;;;6.77;100.00;100271.66;4822514;29;20405;-59
2022/01/24 12:28:42;;;;;;;4.63;2.70;;;;;;;6.75;100.00;100277.09;4822621;29;20034;-59
2022/01/24 12:31:33;;;;;;;5.00;3.10;;;;;;;6.39;100.00;100278.72;4822554;29;20106;-59
2022/01/24 12:34:07;;;;;;;6.13;3.20;;;;;;;6.48;100.00;100271.72;4822710;29;20026;-59
2022/01/24 12:36:39;;;;;;;6.40;3.27;;;;;;;6.32;100.00;100272.31;4822470;29;20273;-59
2022/01/24 12:39:24;;;;;;;6.07;3.40;;;;;;;6.32;100.00;100271.47;4822752;29;20537;-59
2022/01/24 12:41:57;;;;;;;6.60;3.30;;;;;;;6.45;100.00;100267.53;4822439;29;20485;-60
2022/01/24 12:47:23;;;;;;;4.93;2.83;;;;;;;6.49;100.00;100260.94;4822653;29;20038;-59
2022/01/24 12:49:50;;;;;;;6.23;3.33;;;;;;;6.65;100.00;100264.84;4822305;29;20053;-59
2022/01/24 12:52:18;;;;;;;6.37;3.80;;;;;;;6.79;100.00;100264.38;4822251;29;20030;-59
2022/01/24 12:54:47;;;;;;;6.47;3.30;;;;;;;6.60;100.00;100267.91;4819337;29;20489;-60
2022/01/24 12:57:16;;;;;;;5.60;3.20;;;;;;;6.59;100.00;100263.56;4821699;29;20023;-59
2022/01/24 12:59:53;;;;;;;6.30;3.53;;;;;;;6.31;100.00;100267.13;4822325;29;20504;-59
2022/01/24 13:02:24;;;;;;;6.30;3.43;;;;;;;6.46;100.00;100265.72;4822229;29;20109;-60
2022/01/24 13:04:52;;;;;;;5.27;3.27;;;;;;;6.39;100.00;100270.75;4821776;29;20030;-60
2022/01/24 13:07:18;;;;;;;6.03;3.50;;;;;;;6.11;100.00;100258.38;4817194;29;20039;-59
2022/01/24 13:09:43;;;;;;;6.07;3.50;;;;;;;6.00;100.00;100256.66;4822128;29;20099;-59
2022/01/24 13:12:10;;;;;;;5.93;3.30;;;;;;;6.26;100.00;100254.28;4821887;29;20054;-59
2022/01/24 13:14:51;;;;;;;7.00;3.50;;;;;;;6.43;100.00;100258.03;4821984;29;20075;-60
2022/01/24 13:25:17;;;;;;;6.73;3.60;;;;;;;5.97;100.00;100248.16;4825363;29;20290;-59
2022/01/24 13:27:45;;;;;;;7.80;3.40;;;;;;;6.26;100.00;100245.47;4824896;29;20646;-59